createdAt,value
2023-03-05T00:01:46.899Z,19.15
2023-03-05T00:04:15.089Z,19.95
2023-03-05T00:06:42.783Z,17.10
2023-03-05T00:09:10.588Z,18.08
2023-03-05T00:11:38.120Z,18.63
2023-03-05T00:14:06.437Z,18.00
2023-03-05T00:16:34.202Z,18.67
2023-03-05T00:19:02.271Z,17.40
2023-03-05T00:21:31.487Z,18.08
2023-03-05T00:24:01.603Z,18.00
2023-03-05T00:26:29.618Z,18.80
2023-03-05T00:28:57.555Z,17.08
2023-03-05T00:31:32.426Z,17.83
2023-03-05T00:34:02.245Z,19.90
2023-03-05T00:36:30.395Z,18.83
2023-03-05T00:38:58.128Z,19.08
2023-03-05T00:41:25.883Z,19.17
2023-03-05T00:43:53.254Z,18.38
2023-03-05T00:46:20.776Z,19.42
2023-03-05T00:48:48.217Z,18.80
2023-03-05T00:51:15.675Z,18.38
2023-03-05T00:53:43.082Z,18.73
2023-03-05T00:56:10.605Z,19.85
2023-03-05T00:58:38.485Z,18.52
2023-03-05T01:01:06.897Z,19.70
2023-03-05T01:03:35.852Z,19.90
2023-03-05T01:06:08.117Z,21.35
2023-03-05T01:08:36.087Z,19.42
2023-03-05T01:11:04.185Z,19.40
2023-03-05T01:13:31.762Z,20.42
2023-03-05T01:15:59.217Z,20.08
2023-03-05T01:18:26.705Z,20.33
2023-03-05T01:20:54.064Z,20.80
2023-03-05T01:23:21.689Z,20.60
2023-03-05T01:25:59.234Z,19.92
2023-03-05T01:28:28.558Z,21.92
2023-03-05T01:30:56.017Z,22.50
2023-03-05T01:33:23.540Z,22.05
2023-03-05T01:35:51.414Z,21.50
2023-03-05T01:38:19.338Z,23.65
2023-03-05T01:40:46.772Z,21.75
2023-03-05T01:43:14.214Z,23.20
2023-03-05T01:46:00.455Z,22.20
2023-03-05T01:48:28.441Z,22.05
2023-03-05T01:50:55.955Z,22.55
2023-03-05T01:53:23.380Z,22.08
2023-03-05T01:55:50.850Z,23.67
2023-03-05T01:58:18.560Z,22.77
2023-03-05T02:00:47.803Z,23.13
2023-03-05T02:03:15.279Z,23.73
2023-03-05T02:05:45.911Z,24.20
2023-03-05T02:08:14.835Z,24.08
2023-03-05T02:10:42.243Z,23.83
2023-03-05T02:13:11.438Z,24.77
2023-03-05T02:15:39.556Z,23.30
2023-03-05T02:18:08.109Z,24.63
2023-03-05T02:20:49.149Z,24.48
2023-03-05T02:23:17.273Z,23.63
2023-03-05T02:25:44.854Z,23.73
2023-03-05T02:28:12.499Z,23.83
2023-03-05T02:30:39.927Z,23.48
2023-03-05T02:33:07.501Z,23.27
2023-03-05T02:35:35.283Z,24.33
2023-03-05T02:38:03.604Z,24.98
2023-03-05T02:40:31.525Z,24.13
2023-03-05T02:42:59.025Z,24.52
2023-03-05T02:45:27.830Z,24.88
2023-03-05T02:47:55.324Z,22.88
2023-03-05T02:50:23.166Z,24.33
2023-03-05T02:52:50.578Z,25.40
2023-03-05T02:55:18.959Z,23.75
2023-03-05T02:57:46.539Z,24.58
2023-03-05T03:00:14.321Z,23.88
2023-03-05T03:02:41.874Z,22.63
2023-03-05T03:05:09.679Z,23.92
2023-03-05T03:07:37.132Z,23.52
2023-03-05T03:10:05.655Z,21.92
2023-03-05T03:12:33.022Z,23.65
2023-03-05T03:15:01.769Z,22.65
2023-03-05T03:17:29.357Z,24.05
2023-03-05T03:19:56.757Z,24.58
2023-03-05T03:22:24.238Z,25.20
2023-03-05T03:24:51.812Z,24.27
2023-03-05T03:27:19.220Z,25.33
2023-03-05T03:29:46.650Z,22.58
2023-03-05T03:32:14.081Z,24.42
2023-03-05T03:34:41.931Z,25.05
2023-03-05T03:37:12.446Z,22.38
2023-03-05T03:39:39.897Z,24.42
2023-03-05T03:42:07.356Z,24.77
2023-03-05T03:44:34.836Z,24.45
2023-03-05T03:47:02.293Z,23.52
2023-03-05T03:49:29.852Z,23.65
2023-03-05T03:51:58.332Z,21.88
2023-03-05T03:54:25.874Z,23.60
2023-03-05T03:56:53.535Z,25.40
2023-03-05T03:59:21.054Z,23.70
2023-03-05T04:01:48.559Z,25.20
2023-03-05T04:04:16.406Z,25.13
2023-03-05T04:06:43.883Z,25.02
2023-03-05T04:09:11.336Z,23.52
2023-03-05T04:11:38.897Z,24.42
2023-03-05T04:14:06.631Z,24.40
2023-03-05T04:16:34.066Z,24.17
2023-03-05T04:19:01.446Z,23.85
2023-03-05T04:21:29.644Z,24.75
2023-03-05T04:23:57.050Z,23.75
2023-03-05T04:26:24.455Z,24.73
2023-03-05T04:28:51.818Z,24.98
2023-03-05T04:31:20.634Z,25.30
2023-03-05T04:33:48.147Z,24.13
2023-03-05T04:36:15.532Z,23.63
2023-03-05T04:38:42.931Z,24.38
2023-03-05T04:41:10.452Z,24.02
2023-03-05T04:43:37.807Z,24.25
2023-03-05T04:46:05.397Z,25.40
2023-03-05T04:48:32.823Z,24.38
2023-03-05T04:51:00.246Z,24.85
2023-03-05T04:53:27.634Z,24.13
2023-03-05T04:55:55.349Z,25.38
2023-03-05T04:58:23.218Z,25.33
2023-03-05T05:00:50.651Z,25.95
2023-03-05T05:03:18.097Z,25.52
2023-03-05T05:05:45.557Z,25.90
2023-03-05T05:08:12.983Z,22.65
2023-03-05T05:10:41.500Z,23.90
2023-03-05T05:13:08.886Z,24.58
2023-03-05T05:15:36.308Z,24.73
2023-03-05T05:18:03.720Z,24.73
2023-03-05T05:20:31.106Z,24.65
2023-03-05T05:22:58.469Z,24.75
2023-03-05T05:25:25.852Z,26.58
2023-03-05T05:27:53.201Z,37.42
2023-03-05T05:30:20.723Z,36.00
2023-03-05T05:32:48.095Z,29.60
2023-03-05T05:35:15.482Z,28.02
2023-03-05T05:37:42.982Z,24.88
2023-03-05T05:40:10.808Z,24.55
2023-03-05T05:42:38.273Z,24.55
2023-03-05T05:45:06.135Z,24.80
2023-03-05T05:47:33.766Z,23.67
2023-03-05T05:50:01.124Z,22.02
2023-03-05T05:52:28.520Z,21.67
2023-03-05T05:54:56.013Z,23.40
2023-03-05T05:57:23.465Z,22.77
2023-03-05T05:59:50.855Z,24.02
2023-03-05T06:02:18.295Z,23.70
2023-03-05T06:04:45.738Z,23.98
2023-03-05T06:07:13.216Z,22.90
2023-03-05T06:09:40.600Z,22.55
2023-03-05T06:12:08.317Z,23.08
2023-03-05T06:14:35.686Z,22.77
2023-03-05T06:17:03.189Z,22.73
2023-03-05T06:19:30.620Z,22.02
2023-03-05T06:21:58.343Z,22.25
2023-03-05T06:24:25.751Z,22.48
2023-03-05T06:26:53.204Z,22.15
2023-03-05T06:29:20.718Z,22.80
2023-03-05T06:31:48.121Z,21.88
2023-03-05T06:34:15.607Z,23.65
2023-03-05T06:36:43.691Z,22.95
2023-03-05T06:39:11.167Z,22.38
2023-03-05T06:41:38.659Z,23.45
2023-03-05T06:44:06.213Z,23.08
2023-03-05T06:46:34.898Z,23.25
2023-03-05T06:49:02.879Z,22.90
2023-03-05T06:51:32.135Z,22.02
2023-03-05T06:54:03.576Z,22.75
2023-03-05T06:56:31.106Z,22.58
2023-03-05T06:58:58.499Z,22.80
2023-03-05T07:01:25.989Z,22.38
2023-03-05T07:03:54.476Z,22.45
2023-03-05T07:06:22.541Z,23.33
2023-03-05T07:08:50.190Z,23.17
2023-03-05T07:11:18.919Z,23.67
2023-03-05T07:13:49.668Z,24.02
2023-03-05T07:16:18.591Z,24.40
2023-03-05T07:18:46.493Z,25.35
2023-03-05T07:21:18.833Z,23.20
2023-03-05T07:23:46.360Z,24.05
2023-03-05T07:26:13.885Z,23.58
2023-03-05T07:28:41.675Z,24.75
2023-03-05T07:31:10.290Z,25.80
2023-03-05T07:33:37.772Z,24.13
2023-03-05T07:36:05.861Z,25.10
2023-03-05T07:38:33.308Z,24.63
2023-03-05T07:41:04.768Z,23.83
2023-03-05T07:43:32.197Z,24.10
2023-03-05T07:45:59.609Z,22.35
2023-03-05T07:48:27.110Z,24.05
2023-03-05T07:51:01.763Z,23.60
2023-03-05T07:53:29.227Z,24.17
2023-03-05T07:55:56.622Z,23.17
2023-03-05T07:58:24.074Z,23.63
2023-03-05T08:00:51.556Z,24.45
2023-03-05T08:03:18.975Z,24.00
2023-03-05T08:05:46.740Z,24.52
2023-03-05T08:08:14.244Z,23.58
2023-03-05T08:10:41.694Z,23.50
2023-03-05T08:13:09.172Z,24.48
2023-03-05T08:15:38.037Z,25.40
2023-03-05T08:18:05.535Z,23.33
2023-03-05T08:20:35.595Z,24.90
2023-03-05T08:23:03.407Z,24.73
2023-03-05T08:25:31.459Z,24.60
2023-03-05T08:27:59.147Z,25.02
2023-03-05T08:30:27.574Z,24.20
2023-03-05T08:32:55.810Z,25.27
2023-03-05T08:35:23.369Z,25.88
2023-03-05T08:37:50.985Z,24.67
2023-03-05T08:40:18.490Z,26.23
2023-03-05T08:42:46.455Z,24.23
2023-03-05T08:45:14.280Z,25.75
2023-03-05T08:47:41.712Z,23.63
2023-03-05T08:50:09.536Z,25.67
2023-03-05T08:52:37.143Z,25.48
2023-03-05T08:55:04.680Z,24.90
2023-03-05T08:57:32.146Z,24.63
2023-03-05T08:59:59.825Z,23.63
2023-03-05T09:02:27.267Z,25.83
2023-03-05T09:04:54.865Z,25.60
2023-03-05T09:07:22.312Z,26.52
2023-03-05T09:09:49.815Z,24.92
2023-03-05T09:12:17.252Z,26.13
2023-03-05T09:14:44.682Z,32.65
2023-03-05T09:17:12.057Z,28.67
2023-03-05T09:19:39.573Z,26.05
2023-03-05T09:22:06.985Z,26.15
2023-03-05T09:24:34.544Z,26.88
2023-03-05T09:27:02.033Z,27.42
2023-03-05T09:29:31.325Z,29.15
2023-03-05T09:31:58.840Z,27.95
2023-03-05T09:34:26.478Z,28.63
2023-03-05T09:36:53.890Z,28.05
2023-03-05T09:39:21.347Z,29.83
2023-03-05T09:41:55.038Z,29.52
2023-03-05T09:44:31.686Z,28.88
2023-03-05T09:47:17.901Z,28.63
2023-03-05T09:49:57.297Z,29.40
2023-03-05T09:52:29.792Z,29.77
2023-03-05T09:54:57.803Z,28.98
2023-03-05T09:57:29.943Z,28.58
2023-03-05T10:00:00.281Z,32.88
2023-03-05T10:02:33.541Z,33.97
2023-03-05T10:05:04.857Z,31.02
2023-03-05T10:07:34.579Z,31.90
2023-03-05T10:10:03.370Z,29.95
2023-03-05T10:12:54.024Z,31.67
2023-03-05T10:15:35.681Z,35.47
2023-03-05T10:18:22.435Z,34.05
2023-03-05T10:20:54.982Z,35.10
2023-03-05T10:23:29.277Z,35.92
2023-03-05T10:26:15.386Z,29.63
2023-03-05T10:28:51.621Z,30.48
2023-03-05T10:31:25.339Z,31.63
2023-03-05T10:33:55.774Z,29.02
2023-03-05T10:36:45.826Z,29.60
2023-03-05T10:39:19.398Z,32.92
2023-03-05T10:41:53.239Z,28.83
2023-03-05T10:44:40.965Z,27.77
2023-03-05T10:47:23.461Z,29.55
2023-03-05T10:49:52.418Z,26.25
2023-03-05T10:52:51.698Z,26.27
2023-03-05T10:55:20.931Z,26.10
2023-03-05T10:57:48.973Z,27.85
2023-03-05T11:00:16.599Z,26.70
2023-03-05T11:02:55.289Z,27.85
2023-03-05T11:05:41.519Z,25.80
2023-03-05T11:08:35.405Z,24.63
2023-03-05T11:11:04.572Z,26.55
2023-03-05T11:13:33.826Z,25.45
2023-03-05T11:16:02.819Z,26.30
2023-03-05T11:18:37.722Z,25.30
2023-03-05T11:21:10.699Z,22.90
2023-03-05T11:23:38.724Z,23.40
2023-03-05T11:26:09.110Z,24.67
2023-03-05T11:28:38.981Z,20.75
2023-03-05T11:31:21.885Z,22.77
2023-03-05T11:34:09.817Z,23.65
2023-03-05T11:36:37.418Z,25.40
2023-03-05T11:39:08.108Z,24.50
2023-03-05T11:41:48.596Z,25.50
2023-03-05T11:44:18.413Z,24.33
2023-03-05T11:46:48.246Z,23.92
2023-03-05T11:49:19.116Z,24.35
2023-03-05T11:51:52.037Z,24.83
2023-03-05T11:54:23.865Z,27.02
2023-03-05T11:56:52.944Z,25.50
2023-03-05T11:59:24.257Z,25.58
2023-03-05T12:01:56.422Z,25.77
2023-03-05T12:04:27.769Z,24.00
2023-03-05T12:06:57.977Z,23.65
2023-03-05T12:09:38.036Z,24.30
2023-03-05T12:12:24.202Z,24.67
2023-03-05T12:14:54.992Z,23.70
2023-03-05T12:17:26.432Z,23.70
2023-03-05T12:20:05.302Z,24.60
2023-03-05T12:22:34.854Z,24.35
2023-03-05T12:25:21.052Z,24.40
2023-03-05T12:27:48.483Z,27.77
2023-03-05T12:30:50.865Z,25.42
2023-03-05T12:33:36.892Z,24.30
2023-03-05T12:36:22.553Z,26.08
2023-03-05T12:38:53.373Z,24.23
2023-03-05T12:41:25.248Z,25.23
2023-03-05T12:44:05.849Z,26.60
2023-03-05T12:46:36.363Z,24.65
2023-03-05T12:49:19.115Z,25.20
2023-03-05T12:51:53.830Z,24.55
2023-03-05T12:54:33.635Z,25.38
2023-03-05T12:57:06.712Z,25.50
2023-03-05T12:59:41.471Z,25.52
2023-03-05T13:02:34.887Z,25.23
2023-03-05T13:05:05.772Z,26.13
2023-03-05T13:07:33.200Z,25.02
2023-03-05T13:10:00.738Z,25.52
2023-03-05T13:12:29.913Z,25.23
2023-03-05T13:15:04.890Z,25.00
2023-03-05T13:20:00.687Z,25.70
2023-03-05T13:22:28.602Z,24.65
2023-03-05T13:25:11.558Z,25.08
2023-03-05T13:27:39.182Z,24.08
2023-03-05T13:30:06.963Z,24.20
2023-03-05T13:32:34.587Z,25.63
2023-03-05T13:35:02.447Z,26.08
2023-03-05T13:37:33.954Z,25.48
2023-03-05T13:40:07.367Z,25.75
2023-03-05T13:42:36.289Z,25.38
2023-03-05T13:45:21.091Z,25.75
2023-03-05T13:48:00.599Z,25.05
2023-03-05T13:50:32.339Z,26.80
2023-03-05T13:53:19.473Z,26.10
2023-03-05T13:55:47.565Z,26.25
2023-03-05T13:58:41.396Z,26.33
2023-03-05T14:01:28.203Z,25.90
2023-03-05T14:04:19.240Z,26.42
2023-03-05T14:06:56.826Z,26.65
2023-03-05T14:09:28.797Z,27.15
2023-03-05T14:12:06.742Z,27.15
2023-03-05T14:14:37.317Z,27.50
2023-03-05T14:17:24.686Z,26.92
2023-03-05T14:19:52.333Z,26.67
2023-03-05T14:22:36.196Z,26.38
2023-03-05T14:25:04.361Z,25.98
2023-03-05T14:27:34.171Z,27.83
2023-03-05T14:30:01.743Z,28.08
2023-03-05T14:32:31.690Z,27.35
2023-03-05T14:35:00.429Z,26.42
2023-03-05T14:37:35.956Z,25.77
2023-03-05T14:40:07.978Z,25.42
2023-03-05T14:42:38.416Z,26.02
2023-03-05T14:45:15.845Z,27.27
2023-03-05T14:47:43.357Z,26.38
2023-03-05T14:50:31.338Z,26.30
2023-03-05T14:52:59.863Z,25.90
2023-03-05T14:55:31.064Z,27.42
2023-03-05T14:58:02.178Z,27.38
2023-03-05T15:00:29.860Z,27.25
2023-03-05T15:02:58.119Z,26.60
2023-03-05T15:05:26.051Z,29.30
2023-03-05T15:07:53.828Z,27.90
2023-03-05T15:10:23.223Z,28.75
2023-03-05T15:12:51.301Z,29.58
2023-03-05T15:15:19.653Z,29.77
2023-03-05T15:17:48.006Z,31.40
2023-03-05T15:20:20.305Z,31.75
2023-03-05T15:22:47.960Z,31.02
2023-03-05T15:25:15.537Z,33.53
2023-03-05T15:27:43.073Z,33.05
2023-03-05T15:30:15.262Z,35.90
2023-03-05T15:32:42.720Z,35.22
2023-03-05T15:35:10.341Z,36.83
2023-03-05T15:37:37.794Z,36.15
2023-03-05T15:40:05.503Z,35.83
2023-03-05T15:42:33.061Z,51.20
2023-03-05T15:45:00.456Z,48.20
2023-03-05T15:47:27.820Z,48.38
2023-03-05T15:49:55.246Z,44.03
2023-03-05T15:52:22.978Z,38.85
2023-03-05T15:54:50.495Z,45.22
2023-03-05T15:57:18.139Z,72.30
2023-03-05T15:59:45.620Z,84.03
2023-03-05T16:02:13.003Z,71.95
2023-03-05T16:04:40.767Z,68.80
2023-03-05T16:07:09.155Z,55.90
2023-03-05T16:09:39.309Z,52.67
2023-03-05T16:12:09.125Z,49.65
2023-03-05T16:14:38.076Z,47.55
2023-03-05T16:17:06.033Z,41.50
2023-03-05T16:19:35.968Z,40.38
2023-03-05T16:22:03.486Z,44.28
2023-03-05T16:24:33.083Z,49.35
2023-03-05T16:27:00.505Z,52.50
2023-03-05T16:29:30.747Z,50.45
2023-03-05T16:31:58.528Z,45.95
2023-03-05T16:34:26.146Z,50.70
2023-03-05T16:36:53.743Z,57.10
2023-03-05T16:39:21.999Z,46.38
2023-03-05T16:41:50.997Z,47.38
2023-03-05T16:44:18.413Z,40.35
2023-03-05T16:46:49.269Z,30.63
2023-03-05T16:49:17.341Z,33.45
2023-03-05T16:51:44.689Z,23.55
2023-03-05T16:54:12.280Z,18.73
2023-03-05T16:56:39.604Z,13.02
2023-03-05T16:59:07.091Z,15.00
2023-03-05T17:01:34.506Z,13.73
2023-03-05T17:04:02.286Z,12.23
2023-03-05T17:06:30.963Z,10.98
2023-03-05T17:08:58.681Z,10.75
2023-03-05T17:11:26.166Z,10.93
2023-03-05T17:13:53.667Z,10.70
2023-03-05T17:16:22.118Z,11.68
2023-03-05T17:18:49.604Z,10.45
2023-03-05T17:21:17.151Z,11.43
2023-03-05T17:23:44.633Z,11.25
2023-03-05T17:26:13.740Z,10.82
2023-03-05T17:28:41.587Z,10.95
2023-03-05T17:31:09.417Z,10.70
2023-03-05T17:33:37.910Z,11.38
2023-03-05T17:36:05.972Z,10.80
2023-03-05T17:38:33.427Z,11.40
2023-03-05T17:41:00.818Z,11.35
2023-03-05T17:43:28.402Z,10.95
2023-03-05T17:45:59.594Z,12.07
2023-03-05T17:48:27.258Z,11.45
2023-03-05T17:50:54.861Z,11.20
2023-03-05T17:53:23.218Z,10.52
2023-03-05T17:55:50.661Z,9.73
2023-03-05T17:58:18.347Z,11.30
2023-03-05T18:00:46.197Z,10.88
2023-03-05T18:03:13.634Z,11.93
2023-03-05T18:05:41.165Z,10.70
2023-03-05T18:08:08.653Z,11.38
2023-03-05T18:10:36.114Z,10.05
2023-03-05T18:13:03.668Z,10.85
2023-03-05T18:15:31.175Z,10.13
2023-03-05T18:17:59.144Z,10.98
2023-03-05T18:20:29.610Z,10.43
2023-03-05T18:22:57.740Z,10.65
2023-03-05T18:25:30.826Z,10.75
2023-03-05T18:28:05.596Z,10.18
2023-03-05T18:30:33.479Z,10.75
2023-03-05T18:33:01.298Z,10.77
2023-03-05T18:35:29.398Z,9.77
2023-03-05T18:37:56.981Z,10.15
2023-03-05T18:40:28.176Z,9.25
2023-03-05T18:42:56.021Z,10.43
2023-03-05T18:45:23.684Z,9.48
2023-03-05T18:47:54.158Z,9.80
2023-03-05T18:50:23.394Z,9.93
2023-03-05T18:52:50.846Z,8.98
2023-03-05T18:55:23.490Z,10.25
2023-03-05T18:57:51.147Z,9.93
2023-03-05T19:00:23.002Z,9.25
2023-03-05T19:02:50.478Z,9.80
2023-03-05T19:05:20.763Z,8.70
2023-03-05T19:07:48.549Z,9.05
2023-03-05T19:10:19.589Z,9.65
2023-03-05T19:13:26.370Z,9.60
2023-03-05T19:16:08.997Z,8.75
2023-03-05T19:18:54.016Z,8.57
2023-03-05T19:21:25.046Z,8.80
2023-03-05T19:23:52.488Z,9.07
2023-03-05T19:26:20.033Z,9.02
2023-03-05T19:28:47.605Z,9.15
2023-03-05T19:31:16.064Z,9.43
2023-03-05T19:33:43.685Z,12.18
2023-03-05T19:36:11.791Z,9.48
2023-03-05T19:38:40.517Z,9.18
2023-03-05T19:41:10.100Z,8.48
2023-03-05T19:43:37.914Z,9.02
2023-03-05T19:46:06.418Z,10.02
2023-03-05T19:48:38.038Z,9.05
2023-03-05T19:51:12.611Z,8.95
2023-03-05T19:53:41.016Z,9.35
2023-03-05T19:56:08.714Z,9.07
2023-03-05T19:58:36.537Z,8.93
2023-03-05T20:01:20.916Z,9.48
2023-03-05T20:03:49.609Z,8.93
2023-03-05T20:06:17.402Z,9.23
2023-03-05T20:08:44.904Z,8.75
2023-03-05T20:11:13.119Z,8.55
2023-03-05T20:13:41.131Z,9.00
2023-03-05T20:16:22.572Z,8.15
2023-03-05T20:18:52.986Z,8.45
2023-03-05T20:21:23.130Z,8.20
2023-03-05T20:23:51.712Z,8.07
2023-03-05T20:26:19.560Z,8.48
2023-03-05T20:28:47.322Z,8.27
2023-03-05T20:31:14.776Z,7.40
2023-03-05T20:33:42.154Z,8.38
2023-03-05T20:36:09.688Z,7.97
2023-03-05T20:38:37.153Z,7.57
2023-03-05T20:41:12.124Z,8.18
2023-03-05T20:43:43.502Z,8.10
2023-03-05T20:46:21.440Z,7.45
2023-03-05T20:48:49.847Z,7.50
2023-03-05T20:51:19.151Z,7.20
2023-03-05T20:53:46.606Z,7.55
2023-03-05T20:56:14.122Z,8.10
2023-03-05T20:58:41.532Z,8.02
2023-03-05T21:01:08.989Z,8.45
2023-03-05T21:03:37.345Z,7.97
2023-03-05T21:06:04.896Z,8.38
2023-03-05T21:08:32.572Z,8.85
2023-03-05T21:11:00.672Z,8.35
2023-03-05T21:13:28.882Z,8.68
2023-03-05T21:15:56.243Z,8.20
2023-03-05T21:18:23.867Z,7.05
2023-03-05T21:20:51.260Z,7.85
2023-03-05T21:23:18.664Z,8.90
2023-03-05T21:25:46.246Z,8.05
2023-03-05T21:28:18.724Z,8.43
2023-03-05T21:30:48.368Z,8.63
2023-03-05T21:33:17.574Z,8.27
2023-03-05T21:35:45.329Z,7.53
2023-03-05T21:38:14.281Z,8.45
2023-03-05T21:40:45.370Z,8.30
2023-03-05T21:43:13.508Z,7.68
2023-03-05T21:45:41.282Z,7.97
2023-03-05T21:48:09.509Z,8.70
2023-03-05T21:50:39.833Z,9.20
2023-03-05T21:53:08.230Z,8.55
2023-03-05T21:55:46.549Z,8.95
2023-03-05T21:58:17.016Z,8.30
2023-03-05T22:00:44.523Z,9.20
2023-03-05T22:03:11.965Z,9.45
2023-03-05T22:05:39.381Z,9.57
2023-03-05T22:08:06.737Z,9.15
2023-03-05T22:10:34.165Z,9.23
2023-03-05T22:13:12.579Z,9.15
2023-03-05T22:15:50.494Z,9.15
2023-03-05T22:18:28.108Z,9.60
2023-03-05T22:20:56.301Z,8.85
2023-03-05T22:23:24.615Z,9.45
2023-03-05T22:25:59.189Z,8.38
2023-03-05T22:28:27.072Z,9.43
2023-03-05T22:30:54.639Z,9.45
2023-03-05T22:33:23.256Z,9.02
2023-03-05T22:35:51.152Z,8.63
2023-03-05T22:38:18.732Z,8.30
2023-03-05T22:40:47.555Z,8.50
2023-03-05T22:43:15.633Z,8.63
2023-03-05T22:45:43.416Z,8.20
2023-03-05T22:48:11.365Z,7.85
2023-03-05T22:50:39.706Z,8.20
2023-03-05T22:53:07.337Z,8.57
2023-03-05T22:55:34.740Z,8.63
2023-03-05T22:58:02.093Z,8.27
2023-03-05T23:00:29.543Z,7.03
2023-03-05T23:02:57.153Z,8.32
2023-03-05T23:05:24.608Z,7.90
2023-03-05T23:07:51.978Z,7.90
2023-03-05T23:10:26.665Z,8.60
2023-03-05T23:12:55.080Z,7.80
2023-03-05T23:15:24.274Z,7.32
2023-03-05T23:17:51.970Z,7.78
2023-03-05T23:20:24.783Z,8.20
2023-03-05T23:22:56.251Z,8.65
2023-03-05T23:25:25.278Z,8.45
2023-03-05T23:27:52.633Z,8.13
2023-03-05T23:30:21.095Z,8.60
2023-03-05T23:32:50.137Z,9.30
2023-03-05T23:35:19.973Z,8.80
2023-03-05T23:37:47.808Z,9.02
2023-03-05T23:40:17.524Z,8.45
2023-03-05T23:42:45.288Z,9.32
2023-03-05T23:45:13.743Z,9.65
2023-03-05T23:47:41.734Z,9.55
2023-03-05T23:50:12.188Z,9.13
2023-03-05T23:52:39.585Z,9.32
2023-03-05T23:55:07.228Z,8.88
2023-03-05T23:57:35.127Z,9.02
